Clear sky
http://www.flightutilities.com

QR Code
LHBP 180100Z VRB03KT 8000 NSC M02/M04 Q1021 NOSIG

Location: LHBP
BUDAPEST - FERIHEGY - HUNGARY
Latitude: 47°26'22"N - Longitude: 019°15'43"E.
Magnetic declination: 4.76°E
Sunrise: 06:26 UTC
Sunset: 14:53 UTC
Report emitted the day: 18, time 01:00 UTC
Monday 18 December 2017 01:00 Greenwich time.
Wind: Variable in direction, speed: 3 knots (6 km/h) (2 m/s).
Minimum horizontal visibility: 8000 m.
No significant clouds are observed below 5000 feet or below the minimum sector altitude (whichever is higher).
Temperature: -2 degrees Celsius (28 Fahrenheit). Dewpoint: -4 degrees Celsius (25 Fahrenheit). Relative humidity 86.15 %.
QNH (Sea-level pressure): 1021 hPa (30.15 inches).
No significant changes expected in the near future.
0:22
Metar reliability - Emission time in hours and minutes
NOAA
Marginal Visual Flight Rules
3 KT
Wind
-2/-4
Temperature / Dewpoint
8000
Minimum horizontal visibility
 
Clear sky
1021
Sea level pressure
4.76°E
Magnetic declination
06:26 Z
Sunrise
14:53 Z
Sunset
Map
Show on Google Maps